Huemul — 3EUB7 — position and weather

sailwx.info

Track history (hours):
 
Tides and Currents Weather Stations Pressure Air Temp Water Temp Dewpoint Dewpoint Depression Visibility Wind Speed Wind Dir Waves Ship Positions

Huemul

Last reported at 2018-May-07 07:54 UTC. Time now 2018-May-23 03:10 UTC.
Position S 32°43' W 071°37'.
Warning: this ship's position is 15 days out of date.

Length 161 m; draft 6.1 m.

Type: Ship (hazmat cat A). MMSI: 357865000.

Date/timePositionNaut miles runAvg speedWind from/ knotsBaromVisibWave heightAir tempDewpointWater temp
2018-May-07 07:54S 32°43' W 071°37'7 0.2
2018-May-05 17:34S 32°45' W 071°30'0 1.5
2018-May-05 17:30S 32°45' W 071°30'1 2.2
2018-May-05 17:00S 32°45' W 071°31'0 0.0
2018-May-05 16:30S 32°45' W 071°31'0 0.1
2018-May-05 16:00S 32°45' W 071°31'0 0.0
2018-May-05 15:30S 32°45' W 071°31'0 0.0
2018-May-05 15:00S 32°45' W 071°31'1 0.0
2018-May-04 00:02S 32°45' W 071°30'0 1.9
2018-May-03 23:59S 32°45' W 071°30'2 4.1
2018-May-03 23:29S 32°45' W 071°32'5 9.7
2018-May-03 23:00S 32°46' W 071°38'714.1
2018-May-03 22:30S 32°52' W 071°41'714.2
2018-May-03 22:00S 32°59' W 071°45'  
Track history (hours):
 
Tides and Currents Weather Stations Pressure Air Temp Water Temp Dewpoint Dewpoint Depression Visibility Wind Speed Wind Dir Waves Ship Positions

Huemul

Last reported at 2018-May-07 07:54 UTC. Time now 2018-May-23 03:10 UTC.
Position S 32°43' W 071°37'.
Warning: this ship's position is 15 days out of date.

Length 161 m; draft 6.1 m.

Type: Ship (hazmat cat A). MMSI: 357865000.

Date/timePositionNaut miles runAvg speedWind from/ knotsBaromVisibWave heightAir tempDewpointWater temp
2018-May-07 07:54S 32°43' W 071°37'7 0.2
2018-May-05 17:34S 32°45' W 071°30'0 1.5
2018-May-05 17:30S 32°45' W 071°30'1 2.2
2018-May-05 17:00S 32°45' W 071°31'0 0.0
2018-May-05 16:30S 32°45' W 071°31'0 0.1
2018-May-05 16:00S 32°45' W 071°31'0 0.0
2018-May-05 15:30S 32°45' W 071°31'0 0.0
2018-May-05 15:00S 32°45' W 071°31'1 0.0
2018-May-04 00:02S 32°45' W 071°30'0 1.9
2018-May-03 23:59S 32°45' W 071°30'2 4.1
2018-May-03 23:29S 32°45' W 071°32'5 9.7
2018-May-03 23:00S 32°46' W 071°38'714.1
2018-May-03 22:30S 32°52' W 071°41'714.2
2018-May-03 22:00S 32°59' W 071°45'  

Dump ship's entire track history